This is the latest recevied weather packets stored in our database for station/object W5DNT. If no packets are shown the sender has not sent any weather packets the latest 10 day(s).
| Time | Temp. | Humidity | Pressure | Rain* | Wind** | Luminosity | Snow |
|---|---|---|---|---|---|---|---|
| 1788578157 | 28.33° C | 68% | 1012.5 hPa | 0 mm | - | - | - |
| 1788577276 | 28.33° C | 67% | 1012.4 hPa | 0 mm | - | - | - |
| 1788576359 | 28.89° C | 64% | 1012.2 hPa | 0 mm | - | - | - |
| 1788575456 | 28.89° C | 64% | 1012 hPa | 0 mm | - | - | - |
| 1788574554 | 28.89° C | 59% | 1011.7 hPa | 0 mm | - | - | - |
| 1788573655 | 28.89° C | 55% | 1011.5 hPa | 0 mm | - | - | - |
| 1788572757 | 29.44° C | 52% | 1011.1 hPa | 0 mm | - | - | - |
| 1788571854 | 30° C | 52% | 1011.1 hPa | 0 mm | - | - | - |
| 1788570954 | 30.56° C | 51% | 1010.9 hPa | 0 mm | - | - | - |
| 1788570052 | 31.11° C | 51% | 1010.8 hPa | 0 mm | - | - | - |
| 1788569150 | 31.67° C | 51% | 1010.7 hPa | 0 mm | - | - | - |
| 1788568250 | 32.22° C | 52% | 1010.6 hPa | 0 mm | - | - | - |
| 1788567349 | 32.22° C | 52% | 1010.5 hPa | 0 mm | - | - | - |
| 1788566449 | 32.78° C | 51% | 1010.2 hPa | 0 mm | - | - | - |
| 1788565550 | 33.33° C | 51% | 1010 hPa | 0 mm | - | - | - |
| 1788564651 | 33.33° C | 51% | 1009.8 hPa | 0 mm | - | - | - |
| 1788563747 | 33.89° C | 51% | 1009.7 hPa | 0 mm | - | - | - |
| 1788562847 | 33.89° C | 52% | 1009.6 hPa | 0 mm | - | - | - |
| 1788561945 | 33.33° C | 52% | 1009.8 hPa | 0 mm | - | - | - |
| 1788561050 | 33.33° C | 53% | 1009.8 hPa | 0 mm | - | - | - |
| 1788560149 | 33.89° C | 54% | 1010 hPa | 0 mm | - | - | - |
| 1788559251 | 33.33° C | 59% | 1010.1 hPa | 0 mm | - | - | - |
| 1788558338 | 33.33° C | 62% | 1010.4 hPa | 0 mm | - | - | - |
| 1788557431 | 32.78° C | 70% | 1010.5 hPa | 0 mm | - | - | - |
| 1788556533 | 31.67° C | 75% | 1010.7 hPa | 0 mm | - | - | - |
* Rain latest hour (hover to see other rain measurements)
** Current wind speed in m/s (hover to see current wind gust speed)